createdAt,value
2022-07-29T00:01:04.358Z,0.30
2022-07-29T00:03:31.589Z,0.28
2022-07-29T00:05:58.553Z,0.20
2022-07-29T00:08:26.840Z,0.20
2022-07-29T00:10:53.715Z,0.10
2022-07-29T00:13:32.071Z,0.28
2022-07-29T00:16:04.447Z,0.17
2022-07-29T00:18:32.769Z,0.35
2022-07-29T00:21:00.044Z,0.30
2022-07-29T00:23:27.016Z,0.30
2022-07-29T00:25:55.061Z,0.20
2022-07-29T00:28:21.973Z,0.20
2022-07-29T00:30:48.949Z,0.10
2022-07-29T00:33:15.998Z,0.22
2022-07-29T00:35:45.922Z,0.20
2022-07-29T00:38:19.642Z,0.30
2022-07-29T00:40:47.232Z,0.30
2022-07-29T00:43:15.818Z,0.40
2022-07-29T00:45:43.558Z,0.20
2022-07-29T00:48:10.633Z,0.20
2022-07-29T00:50:38.259Z,0.50
2022-07-29T00:53:07.481Z,0.20
2022-07-29T00:55:37.147Z,0.10
2022-07-29T00:58:04.330Z,0.30
2022-07-29T01:00:31.731Z,0.30
2022-07-29T01:02:58.980Z,0.30
2022-07-29T01:05:49.839Z,0.20
2022-07-29T01:08:16.932Z,0.22
2022-07-29T01:10:45.249Z,0.30
2022-07-29T01:13:12.991Z,0.20
2022-07-29T01:15:48.831Z,0.30
2022-07-29T01:18:27.007Z,0.40
2022-07-29T01:21:23.898Z,0.30
2022-07-29T01:24:19.669Z,0.30
2022-07-29T01:27:07.784Z,0.25
2022-07-29T01:29:43.392Z,0.32
2022-07-29T01:32:27.329Z,0.40
2022-07-29T01:35:02.177Z,0.30
2022-07-29T01:37:55.171Z,0.40
2022-07-29T01:40:32.177Z,0.30
2022-07-29T01:43:03.897Z,0.30
2022-07-29T01:45:40.233Z,0.40
2022-07-29T01:48:17.680Z,0.30
2022-07-29T01:50:52.914Z,0.45
2022-07-29T01:53:51.978Z,0.35
2022-07-29T01:56:20.995Z,0.20
2022-07-29T01:58:53.117Z,0.30
2022-07-29T02:01:21.306Z,0.45
2022-07-29T02:03:49.920Z,0.20
2022-07-29T02:06:21.973Z,0.20
2022-07-29T02:08:49.929Z,0.20
2022-07-29T02:11:18.924Z,0.30
2022-07-29T02:13:47.487Z,0.30
2022-07-29T02:16:17.764Z,0.20
2022-07-29T02:18:46.687Z,0.10
2022-07-29T02:21:17.153Z,0.20
2022-07-29T02:23:51.449Z,0.20
2022-07-29T02:26:21.413Z,0.30
2022-07-29T02:28:50.924Z,0.20
2022-07-29T02:31:21.813Z,0.32
2022-07-29T02:33:50.745Z,0.30
2022-07-29T02:36:18.284Z,0.25
2022-07-29T02:38:52.549Z,0.30
2022-07-29T02:41:36.279Z,0.30
2022-07-29T02:44:10.297Z,0.20
2022-07-29T02:46:42.706Z,0.20
2022-07-29T02:49:39.487Z,0.20
2022-07-29T02:52:22.729Z,0.30
2022-07-29T02:54:49.605Z,0.28
2022-07-29T02:57:23.829Z,0.30
2022-07-29T02:59:54.276Z,0.20
2022-07-29T03:02:22.422Z,0.30
2022-07-29T03:04:50.307Z,0.22
2022-07-29T03:07:21.205Z,0.35
2022-07-29T03:09:48.558Z,0.30
2022-07-29T03:12:15.946Z,0.35
2022-07-29T03:14:44.394Z,0.40
2022-07-29T03:17:11.843Z,0.30
2022-07-29T03:19:39.169Z,0.32
2022-07-29T03:22:06.557Z,0.40
2022-07-29T03:24:35.809Z,0.50
2022-07-29T03:27:04.019Z,0.40
2022-07-29T03:29:33.633Z,0.30
2022-07-29T03:32:08.728Z,0.35
2022-07-29T03:34:37.762Z,0.30
2022-07-29T03:37:06.903Z,0.40
2022-07-29T03:39:39.123Z,0.40
2022-07-29T03:42:07.855Z,0.60
2022-07-29T03:44:37.172Z,0.47
2022-07-29T03:47:06.674Z,0.70
2022-07-29T03:49:36.625Z,0.40
2022-07-29T03:52:04.068Z,0.40
2022-07-29T03:54:31.216Z,0.30
2022-07-29T03:57:02.052Z,0.43
2022-07-29T03:59:29.436Z,0.40
2022-07-29T04:01:58.606Z,0.30
2022-07-29T04:04:26.369Z,0.50
2022-07-29T04:06:54.477Z,0.47
2022-07-29T04:09:21.382Z,0.60
2022-07-29T04:12:01.979Z,0.52
2022-07-29T04:14:31.717Z,0.50
2022-07-29T04:16:58.780Z,0.60
2022-07-29T04:19:25.945Z,0.60
2022-07-29T04:21:52.956Z,0.60
2022-07-29T04:24:20.149Z,0.60
2022-07-29T04:26:48.174Z,0.50
2022-07-29T04:29:15.570Z,0.50
2022-07-29T04:31:43.571Z,0.63
2022-07-29T04:34:11.962Z,0.45
2022-07-29T04:36:41.527Z,0.40
2022-07-29T04:39:08.622Z,0.40
2022-07-29T04:41:35.553Z,0.50
2022-07-29T04:44:07.205Z,0.60
2022-07-29T04:46:35.136Z,0.50
2022-07-29T04:49:03.379Z,0.60
2022-07-29T04:51:30.396Z,0.40
2022-07-29T04:53:57.342Z,0.68
2022-07-29T04:56:24.484Z,0.60
2022-07-29T04:58:51.459Z,0.50
2022-07-29T05:01:21.468Z,0.50
2022-07-29T05:03:51.182Z,0.60
2022-07-29T05:06:18.092Z,0.50
2022-07-29T05:08:44.962Z,0.60
2022-07-29T05:11:14.188Z,0.57
2022-07-29T05:13:46.143Z,0.85
2022-07-29T05:16:15.179Z,0.63
2022-07-29T05:18:43.326Z,0.50
2022-07-29T05:21:10.468Z,0.73
2022-07-29T05:23:37.508Z,0.45
2022-07-29T05:26:04.498Z,0.70
2022-07-29T05:28:36.023Z,0.65
2022-07-29T05:31:04.296Z,0.60
2022-07-29T05:33:35.865Z,1.10
2022-07-29T05:38:34.482Z,0.40
2022-07-29T05:41:01.544Z,0.40
2022-07-29T05:43:29.382Z,0.40
2022-07-29T05:45:56.594Z,0.52
2022-07-29T05:48:23.544Z,0.40
2022-07-29T05:50:50.548Z,0.68
2022-07-29T05:53:19.954Z,0.70
2022-07-29T05:55:50.952Z,0.50
2022-07-29T05:58:17.934Z,0.60
2022-07-29T06:00:45.529Z,0.40
2022-07-29T06:03:12.558Z,0.70
2022-07-29T06:05:39.510Z,0.68
2022-07-29T06:08:08.276Z,0.70
2022-07-29T06:10:38.904Z,0.57
2022-07-29T06:13:05.809Z,0.57
2022-07-29T06:15:32.845Z,0.70
2022-07-29T06:18:01.609Z,0.50
2022-07-29T06:20:31.409Z,0.88
2022-07-29T06:22:59.254Z,0.50
2022-07-29T06:25:26.586Z,0.60
2022-07-29T06:27:53.929Z,0.95
2022-07-29T06:30:20.968Z,0.45
2022-07-29T06:32:48.219Z,0.50
2022-07-29T06:35:39.353Z,0.60
2022-07-29T06:38:03.144Z,0.47
2022-07-29T06:41:03.687Z,0.50
2022-07-29T06:43:51.918Z,0.50
2022-07-29T06:46:20.779Z,0.50
2022-07-29T06:48:51.131Z,0.30
2022-07-29T06:51:22.260Z,0.40
2022-07-29T06:53:59.500Z,0.60
2022-07-29T06:56:39.150Z,0.40
2022-07-29T06:59:09.428Z,0.50
2022-07-29T07:01:37.965Z,0.50
2022-07-29T07:04:05.261Z,0.40
2022-07-29T07:06:32.376Z,0.40
2022-07-29T07:08:59.316Z,0.43
2022-07-29T07:11:26.257Z,0.40
2022-07-29T07:13:53.164Z,0.50
2022-07-29T07:16:20.158Z,0.50
2022-07-29T07:18:47.133Z,0.40
2022-07-29T07:21:18.730Z,0.50
2022-07-29T07:23:47.058Z,0.50
2022-07-29T07:26:14.578Z,0.50
2022-07-29T07:28:41.648Z,0.47
2022-07-29T07:31:08.570Z,0.50
2022-07-29T07:33:35.488Z,0.40
2022-07-29T07:36:02.400Z,0.40
2022-07-29T07:38:29.394Z,0.70
2022-07-29T07:40:56.300Z,0.43
2022-07-29T07:43:23.639Z,0.50
2022-07-29T07:45:50.802Z,0.50
2022-07-29T07:48:17.872Z,0.40
2022-07-29T07:50:44.881Z,0.65
2022-07-29T07:53:12.331Z,0.50
2022-07-29T07:58:30.679Z,0.63
2022-07-29T08:00:57.693Z,0.30
2022-07-29T08:03:24.633Z,0.38
2022-07-29T08:05:55.271Z,0.50
2022-07-29T08:08:25.256Z,0.40
2022-07-29T08:10:56.758Z,0.40
2022-07-29T08:13:29.332Z,0.40
2022-07-29T08:16:01.033Z,0.40
2022-07-29T08:18:30.154Z,0.50
2022-07-29T08:20:57.278Z,0.47
2022-07-29T08:23:25.381Z,0.43
2022-07-29T08:25:52.534Z,0.50
2022-07-29T08:28:25.720Z,0.40
2022-07-29T08:30:53.168Z,0.40
2022-07-29T08:33:20.146Z,0.40
2022-07-29T08:35:47.077Z,0.50
2022-07-29T08:38:14.775Z,0.45
2022-07-29T08:40:41.809Z,0.65
2022-07-29T08:43:09.518Z,0.50
2022-07-29T08:45:47.756Z,0.50
2022-07-29T08:48:18.046Z,0.35
2022-07-29T08:50:46.539Z,0.60
2022-07-29T08:53:21.562Z,0.50
2022-07-29T08:55:53.070Z,0.40
2022-07-29T08:58:22.930Z,0.50
2022-07-29T09:00:53.650Z,0.60
2022-07-29T09:03:25.898Z,0.47
2022-07-29T09:05:53.243Z,0.50
2022-07-29T09:08:21.063Z,0.45
2022-07-29T09:10:48.854Z,0.35
2022-07-29T09:13:15.767Z,0.40
2022-07-29T09:15:42.689Z,0.40
2022-07-29T09:18:19.580Z,0.47
2022-07-29T09:21:15.269Z,0.47
2022-07-29T09:23:43.844Z,0.40
2022-07-29T09:26:10.923Z,0.50
2022-07-29T09:28:43.113Z,0.52
2022-07-29T09:31:10.202Z,0.60
2022-07-29T09:33:40.125Z,0.40
2022-07-29T09:36:08.891Z,0.50
2022-07-29T09:38:37.650Z,0.60
2022-07-29T09:41:06.875Z,0.50
2022-07-29T09:43:35.052Z,0.50
2022-07-29T09:46:14.733Z,0.70
2022-07-29T09:48:42.161Z,0.50
2022-07-29T09:51:22.129Z,0.50
2022-07-29T09:53:51.604Z,0.38
2022-07-29T09:56:20.614Z,0.60
2022-07-29T09:58:47.570Z,0.40
2022-07-29T10:01:15.062Z,0.40
2022-07-29T10:03:53.093Z,0.40
2022-07-29T10:06:20.076Z,0.50
2022-07-29T10:08:47.675Z,0.47
2022-07-29T10:11:16.824Z,0.40
2022-07-29T10:13:45.620Z,0.40
2022-07-29T10:16:14.049Z,0.50
2022-07-29T10:18:43.072Z,0.50
2022-07-29T10:21:11.192Z,0.40
2022-07-29T10:23:50.336Z,0.47
2022-07-29T10:26:18.235Z,0.70
2022-07-29T10:28:45.522Z,0.50
2022-07-29T10:31:27.027Z,0.40
2022-07-29T10:34:11.714Z,0.70
2022-07-29T10:37:07.105Z,0.40
2022-07-29T10:39:49.720Z,0.30
2022-07-29T10:42:29.554Z,0.20
2022-07-29T10:45:04.902Z,0.50
2022-07-29T10:47:32.435Z,0.20
2022-07-29T10:50:09.471Z,0.28
2022-07-29T10:52:53.738Z,0.25
2022-07-29T10:55:39.362Z,0.40
2022-07-29T10:58:20.557Z,0.30
2022-07-29T11:00:55.043Z,0.50
2022-07-29T11:03:52.368Z,0.30
2022-07-29T11:06:28.099Z,0.45
2022-07-29T11:09:25.842Z,0.30
2022-07-29T11:12:02.937Z,0.40
2022-07-29T11:15:00.281Z,0.50
2022-07-29T11:17:27.470Z,0.40
2022-07-29T11:20:33.299Z,0.40
2022-07-29T11:23:00.547Z,0.50
2022-07-29T11:25:50.443Z,0.38
2022-07-29T11:28:22.841Z,0.45
2022-07-29T11:30:54.014Z,0.40
2022-07-29T11:33:54.367Z,0.32
2022-07-29T11:36:27.994Z,0.30
2022-07-29T11:39:26.335Z,0.40
2022-07-29T11:41:53.272Z,0.38
2022-07-29T11:44:54.549Z,0.40
2022-07-29T11:47:23.167Z,0.50
2022-07-29T11:49:52.650Z,0.30
2022-07-29T11:52:21.685Z,0.40
2022-07-29T11:54:57.691Z,0.45
2022-07-29T11:57:36.524Z,0.40
2022-07-29T12:00:14.555Z,0.40
2022-07-29T12:02:48.254Z,0.32
2022-07-29T12:05:35.770Z,0.20
2022-07-29T12:08:14.976Z,0.40
2022-07-29T12:10:43.721Z,0.30
2022-07-29T12:13:11.691Z,0.20
2022-07-29T12:15:46.986Z,0.47
2022-07-29T12:18:24.844Z,0.32
2022-07-29T12:21:05.650Z,0.50
2022-07-29T12:23:34.523Z,0.20
2022-07-29T12:26:07.642Z,0.30
2022-07-29T12:28:39.808Z,0.30
2022-07-29T12:31:13.793Z,0.25
2022-07-29T12:33:41.007Z,0.40
2022-07-29T12:36:17.179Z,0.40
2022-07-29T12:38:45.528Z,0.20
2022-07-29T12:41:15.698Z,0.50
2022-07-29T12:43:55.043Z,0.40
2022-07-29T12:46:22.148Z,0.30
2022-07-29T12:48:57.524Z,0.32
2022-07-29T12:51:35.376Z,0.40
2022-07-29T12:54:16.778Z,0.40
2022-07-29T12:56:45.634Z,0.30
2022-07-29T12:59:21.024Z,0.30
2022-07-29T13:01:50.514Z,0.40
2022-07-29T13:04:34.369Z,0.40
2022-07-29T13:07:07.457Z,0.20
2022-07-29T13:09:40.576Z,0.20
2022-07-29T13:12:11.039Z,0.35
2022-07-29T13:14:43.320Z,0.30
2022-07-29T13:17:10.180Z,0.30
2022-07-29T13:19:37.340Z,0.20
2022-07-29T13:22:05.146Z,0.20
2022-07-29T13:24:32.035Z,0.30
2022-07-29T13:26:58.911Z,0.40
2022-07-29T13:29:31.383Z,0.28
2022-07-29T13:31:59.101Z,0.32
2022-07-29T13:34:26.372Z,0.30
2022-07-29T13:36:53.259Z,0.30
2022-07-29T13:39:20.390Z,0.32
2022-07-29T13:41:48.474Z,0.40
2022-07-29T13:44:16.204Z,0.20
2022-07-29T13:46:43.103Z,0.30
2022-07-29T13:49:10.099Z,0.30
2022-07-29T13:51:37.024Z,0.30
2022-07-29T13:54:04.313Z,0.30
2022-07-29T13:56:31.311Z,0.30
2022-07-29T13:58:58.275Z,0.30
2022-07-29T14:01:28.308Z,0.28
2022-07-29T14:03:55.407Z,0.30
2022-07-29T14:06:23.024Z,0.30
2022-07-29T14:08:49.948Z,0.30
2022-07-29T14:11:16.919Z,0.30
2022-07-29T14:13:43.830Z,0.22
2022-07-29T14:16:10.750Z,0.30
2022-07-29T14:18:37.783Z,0.30
2022-07-29T14:21:04.752Z,0.30
2022-07-29T14:23:31.636Z,0.22
2022-07-29T14:25:58.913Z,0.30
2022-07-29T14:28:26.009Z,0.20
2022-07-29T14:30:52.965Z,0.30
2022-07-29T14:33:19.923Z,0.20
2022-07-29T14:35:46.894Z,0.40
2022-07-29T14:38:16.282Z,0.45
2022-07-29T14:40:43.307Z,0.20
2022-07-29T14:43:10.233Z,0.20
2022-07-29T14:45:37.236Z,0.20
2022-07-29T14:48:04.369Z,0.20
2022-07-29T14:50:32.289Z,0.30
2022-07-29T14:53:00.281Z,0.28
2022-07-29T14:55:27.482Z,0.28
2022-07-29T14:58:02.043Z,0.30
2022-07-29T15:00:35.135Z,0.20
2022-07-29T15:03:03.079Z,0.30
2022-07-29T15:05:31.206Z,0.30
2022-07-29T15:07:58.726Z,0.20
2022-07-29T15:10:27.993Z,0.30
2022-07-29T15:12:55.658Z,0.50
2022-07-29T15:15:22.654Z,0.30
2022-07-29T15:17:49.609Z,0.30
2022-07-29T15:20:16.973Z,0.40
2022-07-29T15:22:44.289Z,0.30
2022-07-29T15:25:11.291Z,0.20
2022-07-29T15:27:38.241Z,0.40
2022-07-29T15:30:05.747Z,0.20
2022-07-29T15:32:32.696Z,0.40
2022-07-29T15:34:59.587Z,0.25
2022-07-29T15:37:26.566Z,0.30
2022-07-29T15:39:55.991Z,0.22
2022-07-29T15:42:26.710Z,0.20
2022-07-29T15:44:53.721Z,0.40
2022-07-29T15:47:20.653Z,0.30
2022-07-29T15:49:49.540Z,0.40
2022-07-29T15:52:25.496Z,0.32
2022-07-29T15:54:57.673Z,0.28
2022-07-29T15:57:25.807Z,0.40
2022-07-29T15:59:52.985Z,0.30
2022-07-29T16:02:20.235Z,0.25
2022-07-29T16:04:49.112Z,0.30
2022-07-29T16:07:16.857Z,0.32
2022-07-29T16:09:49.311Z,0.20
2022-07-29T16:12:18.047Z,0.20
2022-07-29T16:14:45.121Z,0.22
2022-07-29T16:17:14.489Z,0.30
2022-07-29T16:19:43.350Z,0.28
2022-07-29T16:22:10.435Z,0.30
2022-07-29T16:24:37.568Z,0.20
2022-07-29T16:27:04.838Z,0.50
2022-07-29T16:29:31.949Z,1.52
2022-07-29T16:31:59.043Z,0.90
2022-07-29T16:34:25.908Z,0.65
2022-07-29T16:36:52.853Z,0.55
2022-07-29T16:39:19.803Z,0.40
2022-07-29T16:41:46.748Z,0.50
2022-07-29T16:44:14.312Z,0.47
2022-07-29T16:46:44.665Z,0.35
2022-07-29T16:49:11.934Z,0.40
2022-07-29T16:51:44.938Z,0.30
2022-07-29T16:54:12.000Z,0.20
2022-07-29T16:56:38.994Z,0.40
2022-07-29T16:59:06.004Z,0.30
2022-07-29T17:01:33.121Z,0.30
2022-07-29T17:04:07.635Z,0.40
2022-07-29T17:06:36.066Z,0.30
2022-07-29T17:09:04.860Z,3.08
2022-07-29T17:11:51.603Z,2.53
2022-07-29T17:14:19.527Z,1.92
2022-07-29T17:17:00.282Z,1.17
2022-07-29T17:19:29.588Z,0.82
2022-07-29T17:22:03.534Z,0.90
2022-07-29T17:24:36.200Z,0.80
2022-07-29T17:27:03.384Z,0.70
2022-07-29T17:29:30.577Z,0.77
2022-07-29T17:31:59.574Z,0.93
2022-07-29T17:34:26.823Z,0.73
2022-07-29T17:36:55.410Z,0.50
2022-07-29T17:39:23.334Z,0.68
2022-07-29T17:41:50.457Z,0.60
2022-07-29T17:44:20.574Z,0.57
2022-07-29T17:46:47.911Z,0.60
2022-07-29T17:49:15.025Z,0.55
2022-07-29T17:51:42.049Z,0.57
2022-07-29T17:54:08.951Z,0.40
2022-07-29T17:56:35.958Z,0.40
2022-07-29T17:59:06.560Z,0.50
2022-07-29T18:01:34.281Z,0.50
2022-07-29T18:04:02.866Z,0.52
2022-07-29T18:06:30.044Z,0.40
2022-07-29T18:08:57.137Z,0.50
2022-07-29T18:11:24.080Z,0.52
2022-07-29T18:13:51.048Z,0.60
2022-07-29T18:16:18.558Z,0.55
2022-07-29T18:18:46.141Z,0.50
2022-07-29T18:21:16.380Z,0.55
2022-07-29T18:24:03.601Z,0.45
2022-07-29T18:26:30.682Z,0.57
2022-07-29T18:28:57.673Z,0.47
2022-07-29T18:31:24.846Z,0.60
2022-07-29T18:33:51.897Z,0.45
2022-07-29T18:36:21.841Z,0.40
2022-07-29T18:38:48.732Z,0.50
2022-07-29T18:41:15.728Z,0.40
2022-07-29T18:43:42.659Z,0.40
2022-07-29T18:46:09.941Z,0.43
2022-07-29T18:48:37.218Z,0.47
2022-07-29T18:51:09.025Z,0.52
2022-07-29T18:53:37.026Z,0.20
2022-07-29T18:56:04.344Z,0.40
2022-07-29T18:58:33.459Z,0.50
2022-07-29T19:01:01.976Z,0.40
2022-07-29T19:03:31.480Z,0.40
2022-07-29T19:05:58.490Z,0.28
2022-07-29T19:08:25.551Z,0.30
2022-07-29T19:10:53.632Z,0.40
2022-07-29T19:13:20.580Z,0.40
2022-07-29T19:15:47.680Z,0.40
2022-07-29T19:18:14.698Z,0.30
2022-07-29T19:20:42.224Z,0.40
2022-07-29T19:23:09.497Z,0.30
2022-07-29T19:25:37.539Z,0.40
2022-07-29T19:28:20.355Z,0.30
2022-07-29T19:30:54.963Z,0.45
2022-07-29T19:33:22.046Z,0.20
2022-07-29T19:35:54.311Z,0.30
2022-07-29T19:38:21.851Z,0.30
2022-07-29T19:40:52.345Z,0.30
2022-07-29T19:43:52.093Z,0.40
2022-07-29T19:46:08.709Z,0.30
2022-07-29T19:48:35.816Z,0.40
2022-07-29T19:51:03.076Z,0.40
2022-07-29T19:53:30.061Z,0.40
2022-07-29T19:55:57.111Z,0.43
2022-07-29T19:58:25.960Z,0.50
2022-07-29T20:00:54.186Z,0.43
2022-07-29T20:03:21.165Z,0.38
2022-07-29T20:05:51.070Z,0.40
2022-07-29T20:08:21.738Z,0.60
2022-07-29T20:10:51.710Z,0.35
2022-07-29T20:13:18.763Z,0.70
2022-07-29T20:15:49.686Z,0.40
2022-07-29T20:18:16.675Z,0.40
2022-07-29T20:20:43.826Z,0.40
2022-07-29T20:23:11.709Z,0.40
2022-07-29T20:25:39.309Z,0.40
2022-07-29T20:28:07.416Z,0.60
2022-07-29T20:30:34.442Z,0.60
2022-07-29T20:33:05.568Z,0.40
2022-07-29T20:35:32.505Z,0.50
2022-07-29T20:38:00.402Z,0.45
2022-07-29T20:40:29.166Z,0.50
2022-07-29T20:42:56.444Z,0.50
2022-07-29T20:45:24.378Z,0.63
2022-07-29T20:47:52.514Z,0.70
2022-07-29T20:50:23.617Z,0.50
2022-07-29T20:52:51.847Z,0.63
2022-07-29T20:55:18.804Z,0.60
2022-07-29T20:57:45.753Z,0.40
2022-07-29T21:00:13.458Z,0.50
2022-07-29T21:02:40.565Z,0.60
2022-07-29T21:05:07.799Z,0.50
2022-07-29T21:07:34.713Z,0.60
2022-07-29T21:10:01.622Z,0.47
2022-07-29T21:12:30.134Z,0.60
2022-07-29T21:14:57.911Z,0.60
2022-07-29T21:17:25.157Z,0.43
2022-07-29T21:19:53.298Z,0.50
2022-07-29T21:22:22.304Z,0.60
2022-07-29T21:24:49.817Z,0.50
2022-07-29T21:27:38.297Z,0.70
2022-07-29T21:30:07.720Z,0.50
2022-07-29T21:32:34.771Z,0.40
2022-07-29T21:35:01.694Z,0.80
2022-07-29T21:37:28.928Z,0.73
2022-07-29T21:39:55.863Z,0.60
2022-07-29T21:42:22.878Z,0.70
2022-07-29T21:44:51.673Z,0.90
2022-07-29T21:47:21.114Z,0.88
2022-07-29T21:49:48.398Z,0.82
2022-07-29T21:52:16.649Z,0.68
2022-07-29T21:54:45.123Z,0.60
2022-07-29T21:57:19.216Z,0.90
2022-07-29T21:59:46.137Z,0.88
2022-07-29T22:02:13.144Z,0.70
2022-07-29T22:04:40.137Z,0.77
2022-07-29T22:07:07.044Z,0.60
2022-07-29T22:09:33.977Z,0.80
2022-07-29T22:12:02.517Z,0.93
2022-07-29T22:14:29.442Z,1.00
2022-07-29T22:16:58.080Z,0.98
2022-07-29T22:19:27.611Z,0.60
2022-07-29T22:21:55.910Z,0.75
2022-07-29T22:24:22.939Z,0.70
2022-07-29T22:26:49.937Z,0.80
2022-07-29T22:29:17.929Z,0.80
2022-07-29T22:31:45.137Z,0.90
2022-07-29T22:34:14.248Z,0.80
2022-07-29T22:36:41.393Z,0.90
2022-07-29T22:39:08.383Z,1.02
2022-07-29T22:41:35.601Z,1.20
2022-07-29T22:44:02.821Z,1.15
2022-07-29T22:46:30.409Z,1.17
2022-07-29T22:48:58.412Z,0.80
2022-07-29T22:51:25.815Z,1.08
2022-07-29T22:53:52.807Z,0.90
2022-07-29T22:56:20.894Z,1.17
2022-07-29T22:58:49.076Z,1.30
2022-07-29T23:01:17.795Z,1.20
2022-07-29T23:04:04.536Z,1.35
2022-07-29T23:06:31.777Z,1.00
2022-07-29T23:08:58.773Z,1.00
2022-07-29T23:11:25.725Z,0.90
2022-07-29T23:13:52.693Z,1.10
2022-07-29T23:16:26.573Z,1.33
2022-07-29T23:18:54.866Z,1.23
2022-07-29T23:21:21.934Z,1.13
2022-07-29T23:23:49.497Z,1.13
2022-07-29T23:26:17.156Z,1.10
2022-07-29T23:28:45.468Z,0.90
2022-07-29T23:31:13.592Z,0.90
2022-07-29T23:33:43.583Z,1.40
2022-07-29T23:36:10.520Z,1.10
2022-07-29T23:38:44.241Z,1.02
2022-07-29T23:41:11.126Z,1.30
2022-07-29T23:43:38.134Z,0.80
2022-07-29T23:46:05.278Z,0.88
2022-07-29T23:48:33.556Z,1.50
2022-07-29T23:51:01.175Z,1.30
2022-07-29T23:53:28.857Z,1.77
2022-07-29T23:55:56.348Z,1.98
2022-07-29T23:58:23.731Z,2.30
